createdAt,value
2019-01-03T00:00:03.611Z,1025.71
2019-01-03T00:01:03.591Z,1025.68
2019-01-03T00:02:03.583Z,1025.67
2019-01-03T00:03:03.572Z,1025.78
2019-01-03T00:04:03.595Z,1025.78
2019-01-03T00:05:03.584Z,1025.76
2019-01-03T00:06:03.541Z,1025.75
2019-01-03T00:07:03.525Z,1025.80
2019-01-03T00:08:03.513Z,1025.84
2019-01-03T00:09:03.507Z,1025.85
2019-01-03T00:10:03.508Z,1025.84
2019-01-03T00:11:03.490Z,1025.84
2019-01-03T00:12:03.470Z,1025.82
2019-01-03T00:13:03.460Z,1025.86
2019-01-03T00:14:03.454Z,1025.91
2019-01-03T00:15:03.450Z,1025.93
2019-01-03T00:16:03.425Z,1025.95
2019-01-03T00:17:03.428Z,1025.90
2019-01-03T00:18:03.421Z,1025.95
2019-01-03T00:19:04.189Z,1025.95
2019-01-03T00:20:03.392Z,1025.96
2019-01-03T00:21:03.374Z,1025.95
2019-01-03T00:22:03.361Z,1025.94
2019-01-03T00:23:03.361Z,1025.96
2019-01-03T00:24:03.346Z,1025.97
2019-01-03T00:25:03.345Z,1025.99
2019-01-03T00:26:03.320Z,1025.99
2019-01-03T00:27:03.305Z,1026.00
2019-01-03T00:28:03.309Z,1025.96
2019-01-03T00:29:03.286Z,1025.98
2019-01-03T00:30:03.296Z,1025.96
2019-01-03T00:31:03.263Z,1025.93
2019-01-03T00:32:03.257Z,1025.95
2019-01-03T00:33:03.237Z,1025.94
2019-01-03T00:34:03.238Z,1025.92
2019-01-03T00:35:03.237Z,1025.90
2019-01-03T00:36:03.205Z,1025.95
2019-01-03T00:37:03.195Z,1025.91
2019-01-03T00:38:03.187Z,1025.87
2019-01-03T00:39:03.187Z,1025.88
2019-01-03T00:40:03.181Z,1025.91
2019-01-03T00:41:03.148Z,1025.87
2019-01-03T00:42:03.136Z,1025.89
2019-01-03T00:43:03.134Z,1025.90
2019-01-03T00:44:03.119Z,1025.95
2019-01-03T00:45:03.114Z,1025.94
2019-01-03T00:46:03.092Z,1025.87
2019-01-03T00:47:03.080Z,1025.95
2019-01-03T00:48:03.081Z,1025.92
2019-01-03T00:49:03.070Z,1025.94
2019-01-03T00:50:03.060Z,1025.96
2019-01-03T00:51:03.045Z,1025.94
2019-01-03T00:52:03.026Z,1025.95
2019-01-03T00:53:03.017Z,1025.98
2019-01-03T00:54:03.004Z,1025.99
2019-01-03T00:55:03.016Z,1026.02
2019-01-03T00:56:02.992Z,1026.02
2019-01-03T00:57:02.981Z,1025.98
2019-01-03T00:58:02.962Z,1026.00
2019-01-03T00:59:02.961Z,1026.02
2019-01-03T01:00:02.947Z,1026.01
2019-01-03T01:01:02.941Z,1025.98
2019-01-03T01:02:02.916Z,1026.01
2019-01-03T01:03:02.901Z,1025.99
2019-01-03T01:04:02.903Z,1025.98
2019-01-03T01:05:02.880Z,1025.95
2019-01-03T01:06:02.881Z,1025.99
2019-01-03T01:07:02.861Z,1025.99
2019-01-03T01:08:02.853Z,1025.99
2019-01-03T01:09:02.836Z,1025.99
2019-01-03T01:10:02.824Z,1025.97
2019-01-03T01:11:02.826Z,1025.99
2019-01-03T01:12:02.806Z,1025.96
2019-01-03T01:13:02.799Z,1025.99
2019-01-03T01:14:02.781Z,1025.95
2019-01-03T01:15:02.773Z,1025.96
2019-01-03T01:16:02.773Z,1025.97
2019-01-03T01:17:02.754Z,1026.00
2019-01-03T01:18:02.739Z,1025.95
2019-01-03T01:19:02.731Z,1026.00
2019-01-03T01:20:02.719Z,1026.05
2019-01-03T01:21:02.716Z,1026.05
2019-01-03T01:22:02.694Z,1026.08
2019-01-03T01:23:02.688Z,1026.06
2019-01-03T01:24:02.672Z,1026.07
2019-01-03T01:25:02.663Z,1026.11
2019-01-03T01:26:02.660Z,1026.12
2019-01-03T01:27:02.642Z,1026.14
2019-01-03T01:28:02.639Z,1026.15
2019-01-03T01:29:02.619Z,1026.14
2019-01-03T01:30:02.606Z,1026.14
2019-01-03T01:31:02.607Z,1026.21
2019-01-03T01:32:02.583Z,1026.21
2019-01-03T01:33:02.581Z,1026.23
2019-01-03T01:34:02.566Z,1026.21
2019-01-03T01:35:02.551Z,1026.20
2019-01-03T01:36:02.551Z,1026.22
2019-01-03T01:37:02.528Z,1026.23
2019-01-03T01:38:02.517Z,1026.22
2019-01-03T01:39:02.514Z,1026.25
2019-01-03T01:40:02.497Z,1026.23
2019-01-03T01:41:02.515Z,1026.22
2019-01-03T01:42:02.476Z,1026.21
2019-01-03T01:43:02.463Z,1026.19
2019-01-03T01:44:02.453Z,1026.20
2019-01-03T01:45:02.445Z,1026.25
2019-01-03T01:46:02.429Z,1026.27
2019-01-03T01:47:02.435Z,1026.27
2019-01-03T01:48:02.410Z,1026.29
2019-01-03T01:49:02.442Z,1026.31
2019-01-03T01:50:02.386Z,1026.30
2019-01-03T01:51:02.402Z,1026.28
2019-01-03T01:52:02.384Z,1026.31
2019-01-03T01:53:02.360Z,1026.30
2019-01-03T01:54:02.342Z,1026.36
2019-01-03T01:55:02.334Z,1026.35
2019-01-03T01:56:02.321Z,1026.43
2019-01-03T01:57:02.323Z,1026.43
2019-01-03T01:58:02.302Z,1026.41
2019-01-03T01:59:02.288Z,1026.45
2019-01-03T02:00:02.280Z,1026.47
2019-01-03T02:01:02.268Z,1026.41
2019-01-03T02:02:02.268Z,1026.44
2019-01-03T02:03:02.246Z,1026.43
2019-01-03T02:04:02.234Z,1026.42
2019-01-03T02:05:02.223Z,1026.45
2019-01-03T02:06:02.212Z,1026.47
2019-01-03T02:07:02.212Z,1026.46
2019-01-03T02:08:02.192Z,1026.55
2019-01-03T02:09:02.185Z,1026.50
2019-01-03T02:10:02.172Z,1026.49
2019-01-03T02:11:02.157Z,1026.49
2019-01-03T02:12:02.158Z,1026.49
2019-01-03T02:13:02.137Z,1026.47
2019-01-03T02:14:02.133Z,1026.48
2019-01-03T02:15:02.113Z,1026.51
2019-01-03T02:16:02.104Z,1026.51
2019-01-03T02:17:02.102Z,1026.45
2019-01-03T02:18:02.082Z,1026.44
2019-01-03T02:19:02.080Z,1026.47
2019-01-03T02:20:02.060Z,1026.48
2019-01-03T02:21:02.050Z,1026.46
2019-01-03T02:22:02.049Z,1026.50
2019-01-03T02:23:02.038Z,1026.44
2019-01-03T02:24:02.019Z,1026.48
2019-01-03T02:25:02.006Z,1026.50
2019-01-03T02:26:01.996Z,1026.52
2019-01-03T02:27:01.998Z,1026.48
2019-01-03T02:28:01.973Z,1026.51
2019-01-03T02:29:01.963Z,1026.52
2019-01-03T02:30:01.953Z,1026.51
2019-01-03T02:31:01.947Z,1026.48
2019-01-03T02:32:01.956Z,1026.47
2019-01-03T02:33:01.919Z,1026.46
2019-01-03T02:34:01.914Z,1026.49
2019-01-03T02:35:01.926Z,1026.50
2019-01-03T02:36:01.889Z,1026.54
2019-01-03T02:37:01.876Z,1026.52
2019-01-03T02:38:01.882Z,1026.51
2019-01-03T02:39:01.853Z,1026.54
2019-01-03T02:40:01.851Z,1026.51
2019-01-03T02:41:01.831Z,1026.52
2019-01-03T02:42:01.820Z,1026.49
2019-01-03T02:43:01.823Z,1026.52
2019-01-03T02:44:01.805Z,1026.53
2019-01-03T02:45:01.796Z,1026.53
2019-01-03T02:46:01.779Z,1026.52
2019-01-03T02:47:01.780Z,1026.51
2019-01-03T02:48:01.770Z,1026.51
2019-01-03T02:49:01.747Z,1026.49
2019-01-03T02:50:01.736Z,1026.47
2019-01-03T02:51:01.725Z,1026.48
2019-01-03T02:52:01.720Z,1026.47
2019-01-03T02:53:01.718Z,1026.41
2019-01-03T02:54:01.702Z,1026.45
2019-01-03T02:55:01.682Z,1026.44
2019-01-03T02:56:01.670Z,1026.34
2019-01-03T02:57:01.663Z,1026.31
2019-01-03T02:58:01.665Z,1026.32
2019-01-03T02:59:01.636Z,1026.30
2019-01-03T03:00:01.634Z,1026.29
2019-01-03T03:01:01.619Z,1026.31
2019-01-03T03:02:01.606Z,1026.22
2019-01-03T03:03:01.610Z,1026.24
2019-01-03T03:04:01.591Z,1026.22
2019-01-03T03:05:01.610Z,1026.15
2019-01-03T03:06:01.561Z,1026.17
2019-01-03T03:07:01.557Z,1026.15
2019-01-03T03:08:01.550Z,1026.15
2019-01-03T03:09:01.539Z,1026.16
2019-01-03T03:10:01.532Z,1026.11
2019-01-03T03:11:01.512Z,1026.08
2019-01-03T03:12:01.496Z,1026.08
2019-01-03T03:13:01.511Z,1026.04
2019-01-03T03:14:01.476Z,1026.05
2019-01-03T03:15:01.470Z,1026.06
2019-01-03T03:16:01.452Z,1025.99
2019-01-03T03:17:01.443Z,1026.02
2019-01-03T03:18:01.434Z,1025.99
2019-01-03T03:19:01.430Z,1026.00
2019-01-03T03:20:01.410Z,1025.99
2019-01-03T03:21:01.399Z,1026.02
2019-01-03T03:22:01.391Z,1025.97
2019-01-03T03:23:01.380Z,1025.91
2019-01-03T03:24:01.379Z,1025.89
2019-01-03T03:25:01.357Z,1025.89
2019-01-03T03:26:01.343Z,1025.92
2019-01-03T03:27:01.333Z,1025.90
2019-01-03T03:28:01.326Z,1025.88
2019-01-03T03:29:01.322Z,1025.92
2019-01-03T03:30:01.303Z,1025.95
2019-01-03T03:31:01.292Z,1025.98
2019-01-03T03:32:01.283Z,1025.91
2019-01-03T03:33:01.277Z,1025.93
2019-01-03T03:34:01.279Z,1025.95
2019-01-03T03:35:01.250Z,1025.94
2019-01-03T03:36:01.231Z,1025.91
2019-01-03T03:37:01.222Z,1025.92
2019-01-03T03:38:01.218Z,1025.93
2019-01-03T03:39:01.211Z,1025.91
2019-01-03T03:40:01.188Z,1025.94
2019-01-03T03:41:01.177Z,1025.92
2019-01-03T03:42:01.166Z,1025.97
2019-01-03T03:43:01.160Z,1025.99
2019-01-03T03:44:01.151Z,1025.97
2019-01-03T03:45:01.143Z,1025.94
2019-01-03T03:46:01.123Z,1025.92
2019-01-03T03:47:01.112Z,1025.96
2019-01-03T03:48:01.101Z,1025.89
2019-01-03T03:49:01.095Z,1025.91
2019-01-03T03:50:01.080Z,1025.89
2019-01-03T03:51:01.066Z,1025.88
2019-01-03T03:52:01.096Z,1025.89
2019-01-03T03:53:01.062Z,1025.89
2019-01-03T03:54:01.041Z,1025.86
2019-01-03T03:55:01.026Z,1025.76
2019-01-03T03:56:01.020Z,1025.76
2019-01-03T03:57:01.003Z,1025.71
2019-01-03T03:58:00.990Z,1025.71
2019-01-03T03:59:00.988Z,1025.65
2019-01-03T04:00:00.967Z,1025.64
2019-01-03T04:01:00.955Z,1025.67
2019-01-03T04:02:00.950Z,1025.63
2019-01-03T04:03:00.933Z,1025.62
2019-01-03T04:04:00.939Z,1025.62
2019-01-03T04:05:01.063Z,1025.61
2019-01-03T04:06:00.901Z,1025.60
2019-01-03T04:07:00.900Z,1025.55
2019-01-03T04:08:00.879Z,1025.60
2019-01-03T04:09:00.873Z,1025.53
2019-01-03T04:10:00.871Z,1025.57
2019-01-03T04:11:00.844Z,1025.54
2019-01-03T04:12:00.837Z,1025.52
2019-01-03T04:13:00.832Z,1025.50
2019-01-03T04:14:00.813Z,1025.51
2019-01-03T04:15:00.816Z,1025.54
2019-01-03T04:16:00.802Z,1025.52
2019-01-03T04:17:00.779Z,1025.52
2019-01-03T04:18:00.776Z,1025.47
2019-01-03T04:19:00.772Z,1025.47
2019-01-03T04:20:00.780Z,1025.48
2019-01-03T04:21:00.735Z,1025.47
2019-01-03T04:22:00.722Z,1025.46
2019-01-03T04:23:00.720Z,1025.48
2019-01-03T04:24:00.712Z,1025.45
2019-01-03T04:25:00.704Z,1025.47
2019-01-03T04:26:00.679Z,1025.49
2019-01-03T04:27:00.668Z,1025.45
2019-01-03T04:28:00.658Z,1025.47
2019-01-03T04:29:00.646Z,1025.42
2019-01-03T04:30:00.644Z,1025.47
2019-01-03T04:31:00.622Z,1025.51
2019-01-03T04:32:00.613Z,1025.58
2019-01-03T04:33:00.600Z,1025.60
2019-01-03T04:34:00.591Z,1025.61
2019-01-03T04:35:00.595Z,1025.65
2019-01-03T04:36:00.574Z,1025.62
2019-01-03T04:37:00.556Z,1025.65
2019-01-03T04:38:00.543Z,1025.64
2019-01-03T04:39:00.535Z,1025.67
2019-01-03T04:40:00.538Z,1025.69
2019-01-03T04:41:00.519Z,1025.64
2019-01-03T04:42:00.539Z,1025.62
2019-01-03T04:43:00.491Z,1025.55
2019-01-03T04:44:00.479Z,1025.55
2019-01-03T04:45:00.484Z,1025.58
2019-01-03T04:46:00.456Z,1025.59
2019-01-03T04:47:00.456Z,1025.56
2019-01-03T04:48:00.433Z,1025.52
2019-01-03T04:49:00.426Z,1025.50
2019-01-03T04:50:00.424Z,1025.48
2019-01-03T04:51:00.401Z,1025.48
2019-01-03T04:52:00.391Z,1025.52
2019-01-03T04:53:00.395Z,1025.55
2019-01-03T04:54:00.370Z,1025.57
2019-01-03T04:55:00.374Z,1025.56
2019-01-03T04:56:00.353Z,1025.61
2019-01-03T04:57:00.334Z,1025.57
2019-01-03T04:58:00.344Z,1025.53
2019-01-03T04:59:00.311Z,1025.52
2019-01-03T05:00:00.356Z,1025.45
2019-01-03T05:01:00.308Z,1025.42
2019-01-03T05:02:00.284Z,1025.46
2019-01-03T05:03:00.272Z,1025.44
2019-01-03T05:04:00.270Z,1025.49
2019-01-03T05:05:00.245Z,1025.46
2019-01-03T05:06:00.244Z,1025.39
2019-01-03T05:07:00.223Z,1025.36
2019-01-03T05:08:00.212Z,1025.38
2019-01-03T05:09:00.203Z,1025.42
2019-01-03T05:10:00.473Z,1025.43
2019-01-03T05:11:00.203Z,1025.41
2019-01-03T05:12:00.166Z,1025.39
2019-01-03T05:13:00.156Z,1025.38
2019-01-03T05:14:00.146Z,1025.38
2019-01-03T05:15:00.167Z,1025.41
2019-01-03T05:16:00.134Z,1025.38
2019-01-03T05:17:00.123Z,1025.40
2019-01-03T05:18:00.131Z,1025.40
2019-01-03T05:19:00.091Z,1025.42
2019-01-03T05:20:00.244Z,1025.37
2019-01-03T05:21:00.082Z,1025.34
2019-01-03T05:22:00.062Z,1025.35
2019-01-03T05:23:00.056Z,1025.37
2019-01-03T05:24:00.036Z,1025.36
2019-01-03T05:25:00.026Z,1025.39
2019-01-03T05:26:00.026Z,1025.39
2019-01-03T05:27:00.006Z,1025.34
2019-01-03T05:27:59.993Z,1025.38
2019-01-03T05:28:59.983Z,1025.38
2019-01-03T05:29:59.981Z,1025.38
2019-01-03T05:30:59.973Z,1025.40
2019-01-03T05:31:59.954Z,1025.42
2019-01-03T05:32:59.940Z,1025.36
2019-01-03T05:33:59.927Z,1025.39
2019-01-03T05:34:59.921Z,1025.40
2019-01-03T05:35:59.921Z,1025.37
2019-01-03T05:36:59.898Z,1025.40
2019-01-03T05:37:59.892Z,1025.37
2019-01-03T05:38:59.876Z,1025.36
2019-01-03T05:39:59.871Z,1025.39
2019-01-03T05:40:59.879Z,1025.38
2019-01-03T05:41:59.841Z,1025.36
2019-01-03T05:42:59.837Z,1025.35
2019-01-03T05:43:59.826Z,1025.34
2019-01-03T05:44:59.810Z,1025.35
2019-01-03T05:45:59.808Z,1025.37
2019-01-03T05:46:59.786Z,1025.41
2019-01-03T05:47:59.782Z,1025.32
2019-01-03T05:48:59.767Z,1025.34
2019-01-03T05:49:59.760Z,1025.34
2019-01-03T05:50:59.771Z,1025.31
2019-01-03T05:51:59.732Z,1025.30
2019-01-03T05:52:59.721Z,1025.31
2019-01-03T05:53:59.713Z,1025.31
2019-01-03T05:54:59.709Z,1025.32
2019-01-03T05:55:59.697Z,1025.38
2019-01-03T05:56:59.689Z,1025.33
2019-01-03T05:57:59.665Z,1025.38
2019-01-03T05:58:59.654Z,1025.45
2019-01-03T05:59:59.643Z,1025.46
2019-01-03T06:00:59.639Z,1025.45
2019-01-03T06:01:59.633Z,1025.44
2019-01-03T06:02:59.616Z,1025.44
2019-01-03T06:03:59.605Z,1025.42
2019-01-03T06:04:59.589Z,1025.41
2019-01-03T06:05:59.579Z,1025.41
2019-01-03T06:06:59.579Z,1025.45
2019-01-03T06:07:59.555Z,1025.40
2019-01-03T06:08:59.560Z,1025.44
2019-01-03T06:09:59.533Z,1025.49
2019-01-03T06:10:59.530Z,1025.45
2019-01-03T06:11:59.529Z,1025.47
2019-01-03T06:12:59.501Z,1025.51
2019-01-03T06:13:59.494Z,1025.50
2019-01-03T06:14:59.484Z,1025.54
2019-01-03T06:15:59.469Z,1025.55
2019-01-03T06:16:59.480Z,1025.57
2019-01-03T06:17:59.453Z,1025.54
2019-01-03T06:18:59.438Z,1025.56
2019-01-03T06:19:59.426Z,1025.56
2019-01-03T06:20:59.418Z,1025.56
2019-01-03T06:21:59.422Z,1025.52
2019-01-03T06:22:59.397Z,1025.51
2019-01-03T06:23:59.392Z,1025.48
2019-01-03T06:24:59.374Z,1025.54
2019-01-03T06:25:59.363Z,1025.54
2019-01-03T06:26:59.359Z,1025.52
2019-01-03T06:27:59.369Z,1025.47
2019-01-03T06:28:59.336Z,1025.53
2019-01-03T06:29:59.318Z,1025.49
2019-01-03T06:30:59.319Z,1025.51
2019-01-03T06:31:59.300Z,1025.56
2019-01-03T06:32:59.296Z,1025.55
2019-01-03T06:33:59.276Z,1025.51
2019-01-03T06:34:59.267Z,1025.54
2019-01-03T06:35:59.255Z,1025.52
2019-01-03T06:36:59.242Z,1025.53
2019-01-03T06:37:59.242Z,1025.49
2019-01-03T06:38:59.222Z,1025.51
2019-01-03T06:39:59.211Z,1025.55
2019-01-03T06:40:59.199Z,1025.61
2019-01-03T06:41:59.187Z,1025.58
2019-01-03T06:42:59.186Z,1025.53
2019-01-03T06:43:59.177Z,1025.63
2019-01-03T06:44:59.157Z,1025.61
2019-01-03T06:45:59.147Z,1025.64
2019-01-03T06:46:59.131Z,1025.66
2019-01-03T06:47:59.138Z,1025.68
2019-01-03T06:48:59.109Z,1025.67
2019-01-03T06:49:59.103Z,1025.69
2019-01-03T06:50:59.091Z,1025.70
2019-01-03T06:51:59.086Z,1025.76
2019-01-03T06:52:59.105Z,1025.74
2019-01-03T06:53:59.062Z,1025.81
2019-01-03T06:54:59.047Z,1025.80
2019-01-03T06:55:59.037Z,1025.82
2019-01-03T06:56:59.027Z,1025.80
2019-01-03T06:57:59.041Z,1025.79
2019-01-03T06:58:59.005Z,1025.78
2019-01-03T06:59:58.991Z,1025.74
2019-01-03T07:00:58.978Z,1025.82
2019-01-03T07:01:58.971Z,1025.88
2019-01-03T07:02:58.974Z,1025.83
2019-01-03T07:03:58.946Z,1025.84
2019-01-03T07:04:58.940Z,1025.86
2019-01-03T07:05:58.929Z,1025.94
2019-01-03T07:06:58.914Z,1025.90
2019-01-03T07:07:58.930Z,1025.92
2019-01-03T07:08:58.902Z,1025.92
2019-01-03T07:09:58.915Z,1025.94
2019-01-03T07:10:58.879Z,1025.97
2019-01-03T07:11:58.865Z,1025.96
2019-01-03T07:12:58.849Z,1025.98
2019-01-03T07:13:58.861Z,1025.94
2019-01-03T07:14:58.849Z,1025.97
2019-01-03T07:15:58.814Z,1025.98
2019-01-03T07:16:58.822Z,1025.99
2019-01-03T07:17:58.793Z,1026.02
2019-01-03T07:18:58.812Z,1025.99
2019-01-03T07:19:58.784Z,1026.04
2019-01-03T07:20:58.766Z,1026.02
2019-01-03T07:21:58.755Z,1026.01
2019-01-03T07:22:58.759Z,1026.07
2019-01-03T07:23:58.742Z,1026.04
2019-01-03T07:24:58.736Z,1026.04
2019-01-03T07:25:58.717Z,1026.00
2019-01-03T07:26:58.738Z,1025.99
2019-01-03T07:27:58.700Z,1026.00
2019-01-03T07:28:58.687Z,1025.97
2019-01-03T07:29:58.667Z,1025.99
2019-01-03T07:30:58.655Z,1026.02
2019-01-03T07:31:58.666Z,1026.04
2019-01-03T07:32:58.642Z,1026.05
2019-01-03T07:33:58.636Z,1025.99
2019-01-03T07:34:58.608Z,1026.00
2019-01-03T07:35:58.595Z,1025.98
2019-01-03T07:36:58.586Z,1025.94
2019-01-03T07:37:58.595Z,1026.02
2019-01-03T07:38:58.585Z,1025.98
2019-01-03T07:39:58.552Z,1026.02
2019-01-03T07:40:58.551Z,1026.02
2019-01-03T07:41:58.534Z,1026.07
2019-01-03T07:42:58.537Z,1026.13
2019-01-03T07:43:58.519Z,1026.12
2019-01-03T07:44:58.501Z,1026.18
2019-01-03T07:45:58.485Z,1026.12
2019-01-03T07:46:58.485Z,1026.07
2019-01-03T07:47:58.469Z,1026.11
2019-01-03T07:48:58.483Z,1026.17
2019-01-03T07:49:58.443Z,1026.09
2019-01-03T07:50:58.432Z,1026.02
2019-01-03T07:51:58.422Z,1026.07
2019-01-03T07:52:58.412Z,1026.05
2019-01-03T07:53:58.414Z,1026.10
2019-01-03T07:54:58.408Z,1026.21
2019-01-03T07:55:58.402Z,1026.21
2019-01-03T07:56:58.387Z,1026.12
2019-01-03T07:57:58.356Z,1026.14
2019-01-03T07:58:58.369Z,1026.17
2019-01-03T07:59:58.349Z,1026.20
2019-01-03T08:00:58.320Z,1026.17
2019-01-03T08:01:58.314Z,1026.21
2019-01-03T08:02:58.301Z,1026.16
2019-01-03T08:03:58.303Z,1026.15
2019-01-03T08:04:58.282Z,1026.12
2019-01-03T08:05:58.266Z,1026.11
2019-01-03T08:06:58.254Z,1026.14
2019-01-03T08:07:58.250Z,1026.15
2019-01-03T08:08:58.253Z,1026.18
2019-01-03T08:09:58.284Z,1026.11
2019-01-03T08:10:58.221Z,1026.12
2019-01-03T08:11:58.201Z,1026.15
2019-01-03T08:12:58.189Z,1026.15
2019-01-03T08:13:58.207Z,1026.11
2019-01-03T08:14:58.175Z,1026.16
2019-01-03T08:15:58.163Z,1026.14
2019-01-03T08:16:58.190Z,1026.21
2019-01-03T08:17:58.140Z,1026.20
2019-01-03T08:18:58.125Z,1026.15
2019-01-03T08:19:58.128Z,1026.20
2019-01-03T08:20:58.101Z,1026.21
2019-01-03T08:21:58.107Z,1026.21
2019-01-03T08:22:58.082Z,1026.23
2019-01-03T08:23:58.069Z,1026.17
2019-01-03T08:24:58.092Z,1026.20
2019-01-03T08:25:58.060Z,1026.23
2019-01-03T08:26:58.045Z,1026.23
2019-01-03T08:27:58.033Z,1026.23
2019-01-03T08:28:58.018Z,1026.24
2019-01-03T08:29:58.015Z,1026.23
2019-01-03T08:30:57.999Z,1026.27
2019-01-03T08:31:57.981Z,1026.28
2019-01-03T08:32:57.968Z,1026.29
2019-01-03T08:33:57.968Z,1026.28
2019-01-03T08:34:57.971Z,1026.29
2019-01-03T08:35:57.937Z,1026.27
2019-01-03T08:36:57.925Z,1026.25
2019-01-03T08:37:57.915Z,1026.25
2019-01-03T08:38:57.905Z,1026.21
2019-01-03T08:39:58.164Z,1026.19
2019-01-03T08:40:57.893Z,1026.17
2019-01-03T08:41:57.878Z,1026.15
2019-01-03T08:42:57.870Z,1026.19
2019-01-03T08:43:57.848Z,1026.19
2019-01-03T08:44:57.849Z,1026.22
2019-01-03T08:45:57.841Z,1026.22
2019-01-03T08:46:57.822Z,1026.30
2019-01-03T08:47:57.813Z,1026.31
2019-01-03T08:49:00.576Z,1026.30
2019-01-03T08:49:57.780Z,1026.37
2019-01-03T08:50:57.793Z,1026.37
2019-01-03T08:51:57.762Z,1026.37
2019-01-03T08:52:57.746Z,1026.37
2019-01-03T08:53:57.758Z,1026.39
2019-01-03T08:54:57.730Z,1026.33
2019-01-03T08:55:57.732Z,1026.34
2019-01-03T08:56:57.744Z,1026.31
2019-01-03T08:57:57.757Z,1026.29
2019-01-03T08:58:57.680Z,1026.27
2019-01-03T08:59:57.673Z,1026.38
2019-01-03T09:00:57.712Z,1026.34
2019-01-03T09:01:57.668Z,1026.39
2019-01-03T09:02:57.653Z,1026.39
2019-01-03T09:03:57.627Z,1026.35
2019-01-03T09:04:57.617Z,1026.44
2019-01-03T09:05:57.614Z,1026.39
2019-01-03T09:06:57.602Z,1026.41
2019-01-03T09:07:57.589Z,1026.42
2019-01-03T09:08:57.568Z,1026.46
2019-01-03T09:09:57.556Z,1026.46
2019-01-03T09:10:57.594Z,1026.49
2019-01-03T09:11:57.535Z,1026.49
2019-01-03T09:12:57.560Z,1026.48
2019-01-03T09:13:57.519Z,1026.49
2019-01-03T09:14:57.506Z,1026.52
2019-01-03T09:15:57.520Z,1026.47
2019-01-03T09:16:57.496Z,1026.46
2019-01-03T09:17:57.472Z,1026.49
2019-01-03T09:18:57.458Z,1026.51
2019-01-03T09:19:57.447Z,1026.49
2019-01-03T09:20:57.437Z,1026.51
2019-01-03T09:21:57.437Z,1026.49
2019-01-03T09:22:57.419Z,1026.52
2019-01-03T09:23:57.423Z,1026.48
2019-01-03T09:24:57.414Z,1026.50
2019-01-03T09:25:57.380Z,1026.46
2019-01-03T09:26:57.401Z,1026.50
2019-01-03T09:27:57.361Z,1026.45
2019-01-03T09:28:57.369Z,1026.49
2019-01-03T09:29:57.363Z,1026.49
2019-01-03T09:30:57.327Z,1026.46
2019-01-03T09:31:57.412Z,1026.41
2019-01-03T09:32:57.304Z,1026.46
2019-01-03T09:33:57.292Z,1026.48
2019-01-03T09:34:57.302Z,1026.45
2019-01-03T09:35:57.336Z,1026.48
2019-01-03T09:36:57.275Z,1026.43
2019-01-03T09:37:57.246Z,1026.44
2019-01-03T09:38:57.246Z,1026.51
2019-01-03T09:39:57.226Z,1026.49
2019-01-03T09:40:57.222Z,1026.47
2019-01-03T09:41:57.214Z,1026.44
2019-01-03T09:42:57.309Z,1026.47
2019-01-03T09:43:57.187Z,1026.48
2019-01-03T09:44:57.170Z,1026.50
2019-01-03T09:45:57.177Z,1026.52
2019-01-03T09:46:57.173Z,1026.49
2019-01-03T09:47:57.137Z,1026.50
2019-01-03T09:48:57.135Z,1026.49
2019-01-03T09:49:57.113Z,1026.49
2019-01-03T09:50:57.107Z,1026.54
2019-01-03T09:51:57.104Z,1026.53
2019-01-03T09:52:57.085Z,1026.53
2019-01-03T09:53:57.075Z,1026.50
2019-01-03T09:54:57.057Z,1026.52
2019-01-03T09:55:57.049Z,1026.50
2019-01-03T09:56:57.045Z,1026.48
2019-01-03T09:57:57.027Z,1026.50
2019-01-03T09:58:57.015Z,1026.49
2019-01-03T09:59:57.002Z,1026.47
2019-01-03T10:00:56.996Z,1026.46
2019-01-03T10:01:57.000Z,1026.42
2019-01-03T10:02:56.978Z,1026.44
2019-01-03T10:03:56.956Z,1026.40
2019-01-03T10:04:56.956Z,1026.31
2019-01-03T10:05:56.935Z,1026.30
2019-01-03T10:06:56.957Z,1026.31
2019-01-03T10:07:56.932Z,1026.26
2019-01-03T10:08:56.964Z,1026.25
2019-01-03T10:09:56.901Z,1026.27
2019-01-03T10:10:56.879Z,1026.34
2019-01-03T10:11:56.881Z,1026.29
2019-01-03T10:12:56.857Z,1026.32
2019-01-03T10:13:56.876Z,1026.30
2019-01-03T10:14:56.834Z,1026.29
2019-01-03T10:15:56.825Z,1026.28
2019-01-03T10:16:56.835Z,1026.26
2019-01-03T10:17:56.800Z,1026.23
2019-01-03T10:18:56.795Z,1026.28
2019-01-03T10:19:56.777Z,1026.27
2019-01-03T10:20:56.772Z,1026.25
2019-01-03T10:21:56.776Z,1026.25
2019-01-03T10:22:56.746Z,1026.24
2019-01-03T10:23:56.737Z,1026.22
2019-01-03T10:24:56.726Z,1026.31
2019-01-03T10:25:56.721Z,1026.28
2019-01-03T10:26:56.702Z,1026.26
2019-01-03T10:27:56.707Z,1026.24
2019-01-03T10:28:56.716Z,1026.18
2019-01-03T10:29:56.714Z,1026.22
2019-01-03T10:30:56.661Z,1026.24
2019-01-03T10:31:56.651Z,1026.25
2019-01-03T10:32:56.680Z,1026.25
2019-01-03T10:33:56.630Z,1026.27
2019-01-03T10:34:56.633Z,1026.22
2019-01-03T10:35:56.625Z,1026.17
2019-01-03T10:36:56.608Z,1026.17
2019-01-03T10:37:56.600Z,1026.13
2019-01-03T10:38:56.573Z,1026.05
2019-01-03T10:39:56.570Z,1026.06
2019-01-03T10:40:56.721Z,1026.02
2019-01-03T10:41:56.546Z,1026.00
2019-01-03T10:42:56.547Z,1025.95
2019-01-03T10:43:56.514Z,1025.98
2019-01-03T10:44:56.510Z,1025.97
2019-01-03T10:45:56.494Z,1025.88
2019-01-03T10:46:56.493Z,1025.90
2019-01-03T10:47:56.488Z,1025.95
2019-01-03T10:48:56.489Z,1025.98
2019-01-03T10:49:56.448Z,1025.95
2019-01-03T10:50:56.547Z,1025.93
2019-01-03T10:51:56.429Z,1025.92
2019-01-03T10:52:56.452Z,1025.86
2019-01-03T10:53:56.419Z,1025.89
2019-01-03T10:54:56.394Z,1025.82
2019-01-03T10:55:56.412Z,1025.85
2019-01-03T10:56:56.376Z,1025.86
2019-01-03T10:57:56.381Z,1025.85
2019-01-03T10:58:56.384Z,1025.81
2019-01-03T10:59:56.345Z,1025.74
2019-01-03T11:00:56.324Z,1025.73
2019-01-03T11:01:56.317Z,1025.75
2019-01-03T11:02:56.326Z,1025.71
2019-01-03T11:03:56.305Z,1025.75
2019-01-03T11:04:56.293Z,1025.67
2019-01-03T11:05:56.291Z,1025.71
2019-01-03T11:06:56.274Z,1025.68
2019-01-03T11:07:56.269Z,1025.63
2019-01-03T11:08:56.243Z,1025.67
2019-01-03T11:09:56.333Z,1025.68
2019-01-03T11:11:01.979Z,1025.65
2019-01-03T11:11:57.209Z,1025.65
2019-01-03T11:12:57.208Z,1025.64
2019-01-03T11:13:56.182Z,1025.63
2019-01-03T11:14:56.179Z,1025.63
2019-01-03T11:15:56.167Z,1025.61
2019-01-03T11:16:56.158Z,1025.56
2019-01-03T11:17:56.145Z,1025.53
2019-01-03T11:18:56.135Z,1025.55
2019-01-03T11:19:56.115Z,1025.54
2019-01-03T11:20:56.116Z,1025.51
2019-01-03T11:21:56.104Z,1025.52
2019-01-03T11:22:56.109Z,1025.49
2019-01-03T11:23:56.086Z,1025.51
2019-01-03T11:24:56.068Z,1025.51
2019-01-03T11:25:56.048Z,1025.50
2019-01-03T11:26:56.054Z,1025.49
2019-01-03T11:27:56.034Z,1025.47
2019-01-03T11:28:56.068Z,1025.47
2019-01-03T11:29:56.018Z,1025.46
2019-01-03T11:30:55.996Z,1025.44
2019-01-03T11:31:55.989Z,1025.46
2019-01-03T11:32:56.002Z,1025.43
2019-01-03T11:33:55.986Z,1025.41
2019-01-03T11:34:55.947Z,1025.42
2019-01-03T11:35:55.940Z,1025.40
2019-01-03T11:36:55.925Z,1025.36
2019-01-03T11:37:55.930Z,1025.37
2019-01-03T11:38:55.924Z,1025.34
2019-01-03T11:39:55.915Z,1025.34
2019-01-03T11:40:55.881Z,1025.26
2019-01-03T11:41:55.881Z,1025.25
2019-01-03T11:42:55.859Z,1025.24
2019-01-03T11:43:55.865Z,1025.25
2019-01-03T11:44:55.848Z,1025.25
2019-01-03T11:45:55.826Z,1025.24
2019-01-03T11:46:55.815Z,1025.21
2019-01-03T11:47:55.812Z,1025.22
2019-01-03T11:48:55.811Z,1025.21
2019-01-03T11:49:55.806Z,1025.23
2019-01-03T11:50:55.774Z,1025.17
2019-01-03T11:51:55.759Z,1025.21
2019-01-03T11:52:55.787Z,1025.22
2019-01-03T11:53:55.785Z,1025.19
2019-01-03T11:54:55.747Z,1025.19
2019-01-03T11:55:55.750Z,1025.23
2019-01-03T11:56:55.754Z,1025.13
2019-01-03T11:57:55.695Z,1025.20
2019-01-03T11:58:55.796Z,1025.19
2019-01-03T11:59:55.668Z,1025.15
2019-01-03T12:00:55.683Z,1025.16
2019-01-03T12:01:55.656Z,1025.14
2019-01-03T12:02:55.685Z,1025.10
2019-01-03T12:03:55.632Z,1025.15
2019-01-03T12:04:55.613Z,1025.14